Dry Fork, Virginia
Current Conditions -  °F | °C
As of 10:53 AM on Friday 19 Dec 2014 (Local Time) from KDAN Reporting Station
Clear Clear  
Wind Chill: 41°   Ceiling: Unl
Heat Index: 45°   Visibility: 10mi
Dew Point: 24°   Wind: 7mph
Humidity: 44%   Direction: 340°NNW
Pressure: 30.18"   Gusts: NA
Location:  36.75°N, 79.4°W
Report Text: KDAN 191553Z AUTO 34006KT 10SM CLR 07/M04 A3018 RMK AO2 SLP219 T00721044
Loading
Personal Weather Stations






























Interactive Weather Map New forecast layout! Learn more

10-Day Weather Forecast

Advertisements
Track Severe Weather on mobile